createdAt,value
2022-09-05T00:02:33.148Z,93.20
2022-09-05T00:05:20.890Z,93.40
2022-09-05T00:07:58.979Z,93.50
2022-09-05T00:10:53.485Z,93.50
2022-09-05T00:13:31.922Z,93.70
2022-09-05T00:16:12.048Z,93.80
2022-09-05T00:24:17.161Z,94.00
2022-09-05T00:24:32.904Z,94.00
2022-09-05T00:27:58.503Z,94.20
2022-09-05T00:31:07.505Z,94.40
2022-09-05T00:33:29.418Z,94.60
2022-09-05T00:36:18.439Z,94.70
2022-09-05T00:38:57.736Z,94.90
2022-09-05T00:41:27.437Z,95.00
2022-09-05T00:44:01.391Z,95.10
2022-09-05T00:46:33.723Z,95.30
2022-09-05T00:49:16.441Z,95.10
2022-09-05T00:51:52.298Z,95.10
2022-09-05T00:54:41.097Z,95.30
2022-09-05T00:57:42.487Z,95.40
2022-09-05T01:00:18.248Z,95.40
2022-09-05T01:03:12.155Z,95.60
2022-09-05T01:05:53.124Z,95.80
2022-09-05T01:08:56.042Z,95.90
2022-09-05T01:11:50.204Z,95.90
2022-09-05T01:14:32.135Z,96.10
2022-09-05T01:17:12.261Z,96.20
2022-09-05T01:19:57.706Z,96.30
2022-09-05T01:22:51.706Z,96.50
2022-09-05T01:25:34.650Z,96.60
2022-09-05T01:29:15.253Z,97.00
2022-09-05T01:31:05.675Z,96.70
2022-09-05T01:33:44.656Z,96.90
2022-09-05T01:36:34.404Z,97.00
2022-09-05T01:40:11.921Z,97.00
2022-09-05T01:42:08.354Z,97.20
2022-09-05T01:44:57.195Z,97.30
2022-09-05T01:47:38.229Z,97.50
2022-09-05T01:50:25.044Z,97.60
2022-09-05T01:53:16.247Z,97.70
2022-09-05T01:56:04.338Z,97.80
2022-09-05T01:58:53.336Z,98.00
2022-09-05T02:01:32.655Z,98.30
2022-09-05T02:04:20.746Z,98.50
2022-09-05T02:07:20.100Z,98.70
2022-09-05T02:10:25.788Z,98.90
2022-09-05T02:13:03.554Z,99.30
2022-09-05T02:15:45.196Z,99.60
2022-09-05T02:18:47.927Z,99.90
2022-09-05T02:21:24.933Z,99.90
2022-09-05T02:24:04.141Z,99.90
2022-09-05T02:26:37.149Z,99.90
2022-09-05T02:29:18.278Z,99.90
2022-09-05T02:32:09.971Z,99.90
2022-09-05T02:34:49.466Z,99.90
2022-09-05T02:37:33.772Z,99.90
2022-09-05T02:45:16.671Z,99.90
2022-09-05T02:45:21.359Z,99.90
2022-09-05T02:46:13.838Z,99.90
2022-09-05T02:48:54.064Z,99.90
2022-09-05T02:57:23.459Z,99.90
2022-09-05T02:57:41.590Z,99.90
2022-09-05T02:58:06.097Z,99.90
2022-09-05T03:00:22.469Z,99.90
2022-09-05T03:03:11.379Z,99.90
2022-09-05T03:05:47.537Z,99.90
2022-09-05T03:08:36.393Z,99.90
2022-09-05T03:11:44.031Z,99.90
2022-09-05T03:14:49.379Z,99.90
2022-09-05T03:17:42.488Z,99.90
2022-09-05T03:20:32.952Z,99.90
2022-09-05T03:23:41.737Z,99.90
2022-09-05T03:26:46.796Z,99.90
2022-09-05T03:29:58.677Z,99.90
2022-09-05T03:32:57.402Z,99.90
2022-09-05T03:36:16.702Z,99.90
2022-09-05T03:39:38.699Z,99.90
2022-09-05T03:42:38.759Z,99.90
2022-09-05T03:45:41.001Z,99.90
2022-09-05T03:48:29.343Z,99.90
2022-09-05T03:57:07.800Z,99.90
2022-09-05T03:57:13.962Z,99.90
2022-09-05T03:58:16.961Z,99.90
2022-09-05T04:02:04.767Z,99.90
2022-09-05T04:08:23.832Z,99.90
2022-09-05T04:08:27.566Z,99.90
2022-09-05T04:09:51.142Z,99.90
2022-09-05T04:12:24.262Z,99.90
2022-09-05T04:14:58.228Z,99.90
2022-09-05T04:17:35.520Z,99.90
2022-09-05T04:20:13.627Z,99.90
2022-09-05T04:23:06.118Z,99.90
2022-09-05T04:25:49.384Z,99.90
2022-09-05T04:28:53.393Z,99.90
2022-09-05T04:31:40.432Z,99.90
2022-09-05T04:34:26.744Z,99.90
2022-09-05T04:37:03.746Z,99.90
2022-09-05T04:39:33.275Z,99.90
2022-09-05T04:42:18.167Z,99.90
2022-09-05T04:44:55.836Z,99.90
2022-09-05T04:47:30.503Z,99.90
2022-09-05T04:50:05.773Z,99.90
2022-09-05T04:53:03.608Z,99.90
2022-09-05T04:55:39.021Z,99.90
2022-09-05T04:58:14.601Z,99.90
2022-09-05T05:05:48.732Z,99.90
2022-09-05T05:06:17.106Z,99.90
2022-09-05T05:06:44.923Z,99.90
2022-09-05T05:09:21.831Z,99.90
2022-09-05T05:16:39.802Z,99.90
2022-09-05T05:18:13.274Z,99.90
2022-09-05T05:18:15.633Z,99.90
2022-09-05T05:20:43.983Z,99.90
2022-09-05T05:23:16.883Z,99.90
2022-09-05T05:25:50.854Z,99.90
2022-09-05T05:28:27.888Z,99.90
2022-09-05T05:31:01.561Z,99.90
2022-09-05T05:33:35.517Z,99.90
2022-09-05T05:36:11.280Z,99.90
2022-09-05T05:38:49.586Z,99.90
2022-09-05T05:41:23.104Z,99.90
2022-09-05T05:43:52.362Z,99.90
2022-09-05T05:46:34.809Z,99.90
2022-09-05T05:49:18.915Z,99.90
2022-09-05T05:52:02.381Z,99.90
2022-09-05T05:54:41.419Z,99.90
2022-09-05T05:57:42.863Z,99.90
2022-09-05T06:00:24.515Z,99.90
2022-09-05T06:03:42.198Z,99.90
2022-09-05T06:06:22.672Z,99.90
2022-09-05T06:11:23.324Z,99.90
2022-09-05T06:14:58.422Z,99.90
2022-09-05T06:16:24.041Z,99.90
2022-09-05T06:19:19.213Z,99.90
2022-09-05T06:22:15.756Z,99.90
2022-09-05T06:25:32.772Z,99.90
2022-09-05T06:28:18.985Z,99.90
2022-09-05T06:31:30.697Z,99.90
2022-09-05T06:33:58.317Z,99.90
2022-09-05T06:36:52.163Z,99.90
2022-09-05T06:39:36.736Z,99.90
2022-09-05T06:42:42.812Z,99.90
2022-09-05T06:45:58.461Z,99.90
2022-09-05T06:48:45.964Z,99.90
2022-09-05T06:51:49.328Z,99.90
2022-09-05T06:55:14.519Z,99.90
2022-09-05T06:58:12.901Z,99.90
2022-09-05T07:00:47.839Z,99.90
2022-09-05T07:03:27.679Z,99.90
2022-09-05T07:05:59.802Z,99.90
2022-09-05T07:08:39.298Z,99.90
2022-09-05T07:11:16.221Z,99.90
2022-09-05T07:13:59.311Z,99.90
2022-09-05T07:16:39.414Z,99.90
2022-09-05T07:19:27.099Z,99.90
2022-09-05T07:22:29.444Z,99.90
2022-09-05T07:25:08.779Z,99.90
2022-09-05T07:27:43.032Z,99.90
2022-09-05T07:30:32.145Z,99.90
2022-09-05T07:33:02.968Z,99.90
2022-09-05T07:35:42.156Z,99.90
2022-09-05T07:38:15.797Z,99.90
2022-09-05T07:40:51.374Z,99.90
2022-09-05T07:43:23.983Z,99.90
2022-09-05T07:46:11.664Z,99.90
2022-09-05T07:48:44.471Z,99.90
2022-09-05T07:54:45.321Z,99.90
2022-09-05T07:57:03.847Z,99.90
2022-09-05T07:59:56.219Z,99.90
2022-09-05T08:02:25.718Z,99.90
2022-09-05T08:04:53.775Z,99.90
2022-09-05T08:07:49.303Z,99.90
2022-09-05T08:10:20.816Z,99.90
2022-09-05T08:13:24.262Z,99.90
2022-09-05T08:16:10.215Z,99.90
2022-09-05T08:18:50.377Z,99.90
2022-09-05T08:21:26.966Z,99.90
2022-09-05T08:24:00.481Z,98.70
2022-09-05T08:26:38.395Z,98.00
2022-09-05T08:29:15.160Z,96.20
2022-09-05T08:31:48.052Z,91.50
2022-09-05T08:34:21.571Z,73.10
2022-09-05T08:37:01.946Z,67.60
2022-09-05T08:39:32.691Z,63.60
2022-09-05T08:42:15.471Z,59.70
2022-09-05T08:46:43.472Z,55.20
2022-09-05T08:47:57.501Z,51.90
2022-09-05T08:50:50.638Z,49.30
2022-09-05T08:53:46.104Z,47.60
2022-09-05T08:56:20.926Z,46.50
2022-09-05T08:59:31.592Z,46.00
2022-09-05T09:02:45.585Z,45.90
2022-09-05T09:05:14.395Z,44.10
2022-09-05T09:07:56.991Z,43.40
2022-09-05T09:10:31.930Z,43.50
2022-09-05T09:13:30.551Z,42.80
2022-09-05T09:16:06.570Z,40.80
2022-09-05T09:18:46.987Z,42.40
2022-09-05T09:21:26.227Z,41.20
2022-09-05T09:24:07.616Z,42.30
2022-09-05T09:26:42.324Z,41.80
2022-09-05T09:29:13.276Z,41.80
2022-09-05T09:31:54.444Z,41.10
2022-09-05T09:34:39.562Z,42.20
2022-09-05T09:37:49.561Z,42.80
2022-09-05T09:41:00.805Z,42.50
2022-09-05T09:43:53.262Z,43.10
2022-09-05T09:46:31.606Z,44.10
2022-09-05T09:49:23.745Z,43.80
2022-09-05T09:52:22.193Z,44.00
2022-09-05T09:55:39.186Z,44.10
2022-09-05T09:58:34.561Z,44.60
2022-09-05T10:01:36.260Z,44.80
2022-09-05T10:10:34.327Z,44.80
2022-09-05T10:10:56.270Z,45.00
2022-09-05T10:11:53.045Z,45.20
2022-09-05T10:14:49.757Z,44.80
2022-09-05T10:17:54.247Z,44.80
2022-09-05T10:20:39.379Z,44.00
2022-09-05T10:23:45.445Z,44.70
2022-09-05T10:26:53.785Z,44.20
2022-09-05T10:29:44.897Z,43.70
2022-09-05T10:35:09.625Z,44.60
2022-09-05T10:35:22.319Z,45.20
2022-09-05T10:37:58.114Z,45.30
2022-09-05T10:40:28.744Z,44.90
2022-09-05T10:43:02.522Z,45.90
2022-09-05T10:45:45.947Z,46.20
2022-09-05T10:48:23.061Z,46.20
2022-09-05T10:51:01.467Z,47.00
2022-09-05T10:53:41.745Z,46.70
2022-09-05T10:56:14.287Z,46.60
2022-09-05T11:00:28.188Z,46.30
2022-09-05T11:02:29.117Z,46.20
2022-09-05T11:05:02.799Z,46.60
2022-09-05T11:07:41.777Z,47.40
2022-09-05T11:10:15.975Z,47.60
2022-09-05T11:13:03.764Z,47.50
2022-09-05T11:15:45.897Z,48.00
2022-09-05T11:18:56.075Z,48.00
2022-09-05T11:21:33.302Z,48.20
2022-09-05T11:24:11.073Z,48.10
2022-09-05T11:26:46.738Z,48.30
2022-09-05T11:29:26.614Z,47.10
2022-09-05T11:38:26.872Z,47.70
2022-09-05T11:39:53.322Z,48.30
2022-09-05T11:39:58.277Z,48.50
2022-09-05T11:42:05.716Z,48.30
2022-09-05T11:44:53.472Z,48.50
2022-09-05T11:47:44.859Z,48.40
2022-09-05T11:50:54.986Z,48.70
2022-09-05T11:54:06.933Z,48.70
2022-09-05T11:57:25.501Z,48.20
2022-09-05T12:00:33.124Z,48.90
2022-09-05T12:03:59.203Z,49.10
2022-09-05T12:06:49.481Z,49.00
2022-09-05T12:09:32.004Z,49.40
2022-09-05T12:12:27.014Z,49.00
2022-09-05T12:15:12.760Z,48.80
2022-09-05T12:17:53.803Z,48.80
2022-09-05T12:20:27.781Z,49.30
2022-09-05T12:23:02.759Z,49.00
2022-09-05T12:27:38.658Z,49.20
2022-09-05T12:29:27.867Z,49.60
2022-09-05T12:32:50.318Z,49.20
2022-09-05T12:36:12.539Z,49.70
2022-09-05T12:40:25.431Z,49.90
2022-09-05T12:41:37.138Z,50.20
2022-09-05T12:44:36.450Z,49.90
2022-09-05T12:46:26.316Z,49.80
2022-09-05T12:49:01.476Z,50.10
2022-09-05T12:51:45.274Z,50.50
2022-09-05T12:54:33.640Z,50.50
2022-09-05T13:02:20.091Z,50.60
2022-09-05T13:03:07.313Z,50.30
2022-09-05T13:03:28.069Z,50.80
2022-09-05T13:05:55.005Z,50.40
2022-09-05T13:08:28.161Z,50.80
2022-09-05T13:14:49.703Z,50.20
2022-09-05T13:15:01.574Z,50.80
2022-09-05T13:16:48.155Z,51.00
2022-09-05T13:19:28.432Z,51.10
2022-09-05T13:21:59.297Z,51.50
2022-09-05T13:24:32.195Z,52.00
2022-09-05T13:27:07.233Z,51.70
2022-09-05T13:30:03.746Z,51.80
2022-09-05T13:37:56.534Z,52.00
2022-09-05T13:38:08.369Z,52.10
2022-09-05T13:38:48.681Z,52.40
2022-09-05T13:41:27.912Z,52.20
2022-09-05T13:44:00.394Z,52.90
2022-09-05T13:46:58.562Z,52.40
2022-09-05T13:49:37.159Z,52.70
2022-09-05T13:52:28.068Z,52.70
2022-09-05T13:55:10.642Z,52.50
2022-09-05T13:57:42.670Z,53.10
2022-09-05T14:00:39.684Z,53.10
2022-09-05T14:03:38.830Z,53.50
2022-09-05T14:06:45.452Z,53.70
2022-09-05T14:09:39.408Z,53.90
2022-09-05T14:12:19.609Z,54.00
2022-09-05T14:15:09.309Z,54.10
2022-09-05T14:17:59.497Z,54.30
2022-09-05T14:20:49.902Z,53.90
2022-09-05T14:23:20.261Z,54.30
2022-09-05T14:25:54.057Z,54.50
2022-09-05T14:28:27.488Z,54.80
2022-09-05T14:36:12.308Z,54.80
2022-09-05T14:37:44.261Z,55.00
2022-09-05T14:38:01.495Z,54.80
2022-09-05T14:40:30.352Z,55.00
2022-09-05T14:43:27.157Z,55.30
2022-09-05T14:46:11.621Z,55.40
2022-09-05T14:48:56.272Z,55.70
2022-09-05T14:51:31.139Z,56.10
2022-09-05T14:54:02.277Z,56.00
2022-09-05T14:58:16.225Z,56.10
2022-09-05T15:02:44.703Z,56.20
2022-09-05T15:02:45.054Z,56.20
2022-09-05T15:05:38.863Z,56.60
2022-09-05T15:08:36.645Z,56.70
2022-09-05T15:12:17.669Z,56.80
2022-09-05T15:13:57.120Z,57.10
2022-09-05T15:16:27.164Z,57.30
2022-09-05T15:18:56.405Z,57.40
2022-09-05T15:21:33.396Z,57.50
2022-09-05T15:24:21.381Z,57.20
2022-09-05T15:26:53.299Z,57.20
2022-09-05T15:29:27.173Z,57.40
2022-09-05T15:32:14.364Z,57.60
2022-09-05T15:34:42.479Z,57.70
2022-09-05T15:37:26.622Z,57.70
2022-09-05T15:40:22.498Z,57.80
2022-09-05T15:42:55.102Z,58.10
2022-09-05T15:45:26.263Z,58.30
2022-09-05T15:48:19.185Z,58.20
2022-09-05T15:50:51.330Z,58.30
2022-09-05T15:53:25.420Z,58.50
2022-09-05T15:55:59.929Z,58.80
2022-09-05T15:58:52.513Z,59.10
2022-09-05T16:01:35.917Z,59.10
2022-09-05T16:08:55.476Z,59.10
2022-09-05T16:10:35.540Z,59.40
2022-09-05T16:10:45.591Z,59.50
2022-09-05T16:12:46.945Z,59.60
2022-09-05T16:16:33.718Z,59.80
2022-09-05T16:23:18.641Z,60.80
2022-09-05T16:23:33.602Z,60.10
2022-09-05T16:24:05.230Z,60.50
2022-09-05T16:26:39.315Z,61.10
2022-09-05T16:29:19.492Z,61.60
2022-09-05T16:32:06.599Z,61.60
2022-09-05T16:34:42.991Z,61.60
2022-09-05T16:37:14.821Z,62.50
2022-09-05T16:39:47.452Z,62.60
2022-09-05T16:42:21.022Z,62.70
2022-09-05T16:44:58.671Z,62.70
2022-09-05T16:47:36.557Z,63.80
2022-09-05T16:50:16.589Z,65.30
2022-09-05T16:53:15.977Z,66.30
2022-09-05T16:55:56.380Z,66.20
2022-09-05T16:58:28.953Z,67.30
2022-09-05T17:01:13.754Z,68.50
2022-09-05T17:03:57.353Z,69.30
2022-09-05T17:06:36.790Z,69.60
2022-09-05T17:09:19.798Z,69.70
2022-09-05T17:12:00.236Z,69.60
2022-09-05T17:14:35.161Z,70.40
2022-09-05T17:17:36.201Z,71.00
2022-09-05T17:20:10.718Z,71.60
2022-09-05T17:25:11.083Z,72.00
2022-09-05T17:29:26.997Z,72.90
2022-09-05T17:29:32.750Z,72.50
2022-09-05T17:31:54.856Z,73.30
2022-09-05T17:34:50.313Z,73.70
2022-09-05T17:38:12.112Z,74.30
2022-09-05T17:41:10.555Z,74.70
2022-09-05T17:43:40.293Z,75.50
2022-09-05T17:46:21.233Z,76.00
2022-09-05T17:49:19.631Z,76.30
2022-09-05T17:52:27.319Z,76.90
2022-09-05T17:54:56.761Z,77.60
2022-09-05T17:57:42.476Z,78.00
2022-09-05T18:01:01.366Z,78.30
2022-09-05T18:04:16.761Z,78.90
2022-09-05T18:06:59.677Z,79.40
2022-09-05T18:10:12.292Z,79.80
2022-09-05T18:13:13.284Z,80.20
2022-09-05T18:16:08.113Z,80.60
2022-09-05T18:19:28.988Z,80.70
2022-09-05T18:21:26.279Z,81.20
2022-09-05T18:24:02.828Z,81.40
2022-09-05T18:26:40.561Z,82.00
2022-09-05T18:29:57.535Z,82.40
2022-09-05T18:32:39.583Z,82.40
2022-09-05T18:35:26.481Z,83.20
2022-09-05T18:38:29.729Z,83.50
2022-09-05T18:41:21.920Z,84.00
2022-09-05T18:44:12.215Z,84.60
2022-09-05T18:46:46.372Z,85.30
2022-09-05T18:50:01.624Z,86.00
2022-09-05T18:52:16.413Z,86.50
2022-09-05T18:56:10.402Z,86.80
2022-09-05T18:57:49.559Z,87.30
2022-09-05T19:00:26.116Z,87.30
2022-09-05T19:03:19.448Z,87.90
2022-09-05T19:05:51.426Z,88.30
2022-09-05T19:08:28.816Z,88.40
2022-09-05T19:11:27.795Z,88.30
2022-09-05T19:14:14.158Z,89.00
2022-09-05T19:16:47.700Z,89.20
2022-09-05T19:19:24.629Z,89.80
2022-09-05T19:22:02.445Z,89.90
2022-09-05T19:24:45.495Z,90.00
2022-09-05T19:32:12.303Z,89.90
2022-09-05T19:36:52.296Z,90.00
2022-09-05T19:37:15.380Z,90.10
2022-09-05T19:37:25.583Z,90.10
2022-09-05T19:39:23.167Z,90.30
2022-09-05T19:47:29.684Z,90.50
2022-09-05T19:47:34.343Z,90.60
2022-09-05T19:47:38.380Z,90.50
2022-09-05T19:50:09.737Z,90.70
2022-09-05T19:52:40.290Z,90.90
2022-09-05T19:55:21.964Z,90.90
2022-09-05T19:58:20.289Z,90.90
2022-09-05T20:01:00.463Z,91.10
2022-09-05T20:03:35.495Z,91.30
2022-09-05T20:06:29.357Z,91.50
2022-09-05T20:09:14.258Z,91.90
2022-09-05T20:11:47.666Z,92.40
2022-09-05T20:14:25.042Z,92.20
2022-09-05T20:16:55.972Z,92.40
2022-09-05T20:19:28.735Z,92.30
2022-09-05T20:21:59.203Z,92.40
2022-09-05T20:24:41.000Z,92.40
2022-09-05T20:27:09.884Z,92.60
2022-09-05T20:29:54.817Z,92.80
2022-09-05T20:32:39.815Z,93.00
2022-09-05T20:39:45.346Z,93.20
2022-09-05T20:43:20.296Z,93.30
2022-09-05T20:43:20.495Z,93.30
2022-09-05T20:43:58.249Z,93.40
2022-09-05T20:50:14.324Z,93.50
2022-09-05T20:54:10.489Z,93.60
2022-09-05T20:54:28.654Z,93.70
2022-09-05T20:55:38.696Z,93.90
2022-09-05T20:57:51.100Z,93.90
2022-09-05T21:00:22.486Z,94.00
2022-09-05T21:02:54.713Z,94.20
2022-09-05T21:05:29.854Z,94.30
2022-09-05T21:08:24.804Z,94.30
2022-09-05T21:10:57.945Z,94.50
2022-09-05T21:13:29.844Z,94.60
2022-09-05T21:15:58.916Z,94.70
2022-09-05T21:18:33.326Z,95.00
2022-09-05T21:21:10.301Z,95.10
2022-09-05T21:24:16.548Z,95.10
2022-09-05T21:26:50.452Z,95.30
2022-09-05T21:29:27.448Z,95.40
2022-09-05T21:32:02.560Z,95.40
2022-09-05T21:34:45.066Z,95.50
2022-09-05T21:37:17.331Z,95.60
2022-09-05T21:39:58.290Z,95.70
2022-09-05T21:46:31.678Z,95.80
2022-09-05T21:47:45.067Z,95.90
2022-09-05T21:48:08.569Z,96.00
2022-09-05T21:50:43.430Z,96.20
2022-09-05T21:57:58.721Z,96.20
2022-09-05T21:59:17.169Z,96.30
2022-09-05T21:59:26.345Z,96.50
2022-09-05T22:01:53.127Z,96.60
2022-09-05T22:04:22.576Z,96.70
2022-09-05T22:06:53.122Z,96.70
2022-09-05T22:09:22.150Z,96.90
2022-09-05T22:11:51.516Z,96.90
2022-09-05T22:14:20.439Z,96.90
2022-09-05T22:16:50.476Z,97.00
2022-09-05T22:19:37.206Z,96.60
2022-09-05T22:22:15.884Z,96.60
2022-09-05T22:24:49.788Z,96.70
2022-09-05T22:27:19.388Z,96.70
2022-09-05T22:29:50.276Z,96.90
2022-09-05T22:32:34.977Z,96.90
2022-09-05T22:35:27.358Z,97.00
2022-09-05T22:38:01.193Z,97.00
2022-09-05T22:40:31.006Z,96.90
2022-09-05T22:43:00.311Z,97.00
2022-09-05T22:45:29.916Z,97.00
2022-09-05T22:47:58.303Z,97.30
2022-09-05T22:50:28.019Z,97.00
2022-09-05T22:52:56.121Z,97.00
2022-09-05T22:55:24.172Z,96.90
2022-09-05T22:57:52.272Z,97.00
2022-09-05T23:00:21.414Z,97.10
2022-09-05T23:02:52.712Z,97.20
2022-09-05T23:05:21.318Z,97.30
2022-09-05T23:07:50.866Z,97.30
2022-09-05T23:10:19.429Z,97.40
2022-09-05T23:12:47.446Z,97.40
2022-09-05T23:15:15.979Z,97.40
2022-09-05T23:17:44.062Z,97.50
2022-09-05T23:20:14.562Z,97.50
2022-09-05T23:22:43.158Z,97.60
2022-09-05T23:25:12.697Z,97.70
2022-09-05T23:27:40.773Z,97.90
2022-09-05T23:30:09.961Z,98.20
2022-09-05T23:32:44.086Z,98.30
2022-09-05T23:35:12.159Z,98.30
2022-09-05T23:37:43.195Z,98.40
2022-09-05T23:40:13.685Z,98.50
2022-09-05T23:42:41.905Z,98.60
2022-09-05T23:45:10.834Z,98.70
2022-09-05T23:47:38.843Z,99.00
2022-09-05T23:50:07.895Z,99.10
2022-09-05T23:52:39.614Z,99.10
2022-09-05T23:55:10.647Z,99.30
2022-09-05T23:57:40.413Z,99.40
